Time;durP1;ratioP1;P1;durP2;ratioP2;P2;SDS_P1;SDS_P2;PMS_P1;PMS_P2;Temp;Humidity;BMP_temperature;BMP_pressure;BME280_temperature;BME280_humidity;BME280_pressure;Samples;Min_cycle;Max_cycle;Signal;HPM_P1;HPM_P2
2022/11/30 00:00:58;;;;;;;48.30;23.33;;;;;;;8.25;100.00;102189.13;5032744;28;20032;-63
2022/11/30 00:06:45;;;;;;;47.22;22.77;;;;;;;8.09;99.88;102164.72;5055574;23;20092;-85
2022/11/30 00:09:12;;;;;;;45.35;21.70;;;;;;;8.17;100.00;102187.00;5033448;28;20045;-84
2022/11/30 00:11:40;;;;;;;42.45;20.90;;;;;;;8.19;100.00;102191.53;5049427;28;20041;-84
2022/11/30 00:14:05;;;;;;;44.05;21.98;;;;;;;8.19;99.91;102188.88;5033481;28;20061;-84
2022/11/30 00:16:30;;;;;;;45.08;21.45;;;;;;;8.16;100.00;102182.59;5037294;28;20381;-83
2022/11/30 00:18:56;;;;;;;43.80;21.05;;;;;;;8.16;100.00;102193.13;5037306;28;20041;-84
2022/11/30 00:21:21;;;;;;;38.97;20.80;;;;;;;8.09;100.00;102180.53;5037041;28;20479;-83
2022/11/30 00:23:50;;;;;;;40.72;21.13;;;;;;;8.07;100.00;102185.72;5037116;28;20087;-83
2022/11/30 00:26:21;;;;;;;42.22;20.33;;;;;;;8.07;100.00;102184.84;5037126;28;20065;-84
2022/11/30 00:28:47;;;;;;;40.53;20.40;;;;;;;8.11;100.00;102199.94;5037344;28;20049;-83
2022/11/30 00:31:15;;;;;;;41.70;20.45;;;;;;;8.10;100.00;102191.13;5036957;28;20033;-84
2022/11/30 00:33:41;;;;;;;40.25;19.52;;;;;;;8.06;100.00;102176.03;5036974;28;20029;-84
2022/11/30 00:36:10;;;;;;;44.53;20.48;;;;;;;8.08;100.00;102182.25;5052229;28;20040;-83
2022/11/30 00:38:35;;;;;;;41.08;20.08;;;;;;;8.07;100.00;102192.75;5037100;28;20044;-83
2022/11/30 00:41:01;;;;;;;46.92;20.38;;;;;;;8.03;100.00;102196.97;5036538;28;20025;-83
2022/11/30 00:43:27;;;;;;;41.45;19.50;;;;;;;8.05;100.00;102192.69;5036325;28;20424;-83
2022/11/30 00:45:53;;;;;;;39.40;18.92;;;;;;;8.01;100.00;102189.00;5035240;28;20043;-83
2022/11/30 00:48:18;;;;;;;40.47;18.63;;;;;;;8.04;100.00;102193.50;5035484;28;20033;-83
2022/11/30 00:50:44;;;;;;;37.58;19.25;;;;;;;8.04;100.00;102197.03;5036394;28;20033;-83
2022/11/30 00:53:09;;;;;;;47.25;19.65;;;;;;;8.06;100.00;102193.59;5019509;28;20438;-83
2022/11/30 00:55:34;;;;;;;40.22;18.95;;;;;;;8.07;100.00;102195.38;5036600;28;20116;-83
2022/11/30 00:58:03;;;;;;;44.92;20.73;;;;;;;8.06;100.00;102193.59;5037118;28;20037;-84
2022/11/30 01:00:28;;;;;;;40.60;18.35;;;;;;;8.01;100.00;102189.00;5051778;28;20033;-84
2022/11/30 01:02:55;;;;;;;45.80;20.30;;;;;;;8.03;100.00;102194.34;5036428;28;20048;-84
2022/11/30 01:05:22;;;;;;;36.42;18.33;;;;;;;8.06;100.00;102197.09;5036618;28;20112;-84
2022/11/30 01:23:10;;;;;;;36.85;17.27;;;;;;;8.15;100.00;102204.50;4566711;22;20405;31
2022/11/30 01:25:35;;;;;;;31.35;16.85;;;;;;;8.14;100.00;102207.97;5052250;28;20456;-69
2022/11/30 01:28:00;;;;;;;34.35;17.65;;;;;;;8.11;100.00;102200.81;5055408;28;20021;-69
2022/11/30 01:30:26;;;;;;;35.88;17.50;;;;;;;8.10;100.00;102203.41;5055423;28;20029;-68
2022/11/30 01:32:51;;;;;;;38.05;17.30;;;;;;;8.10;100.00;102206.94;5055269;28;20428;-69
2022/11/30 01:39:07;;;;;;;32.83;15.48;;;;;;;8.09;100.00;102204.22;5074232;22;20464;-64
2022/11/30 01:41:32;;;;;;;31.73;16.35;;;;;;;8.06;100.00;102204.09;4995556;28;20085;-64
2022/11/30 01:44:04;;;;;;;27.90;15.93;;;;;;;8.05;100.00;102205.84;4995912;28;20034;-63
2022/11/30 01:46:39;;;;;;;31.73;16.38;;;;;;;8.08;100.00;102210.31;4995972;28;20462;-63
2022/11/30 01:49:07;;;;;;;30.95;15.65;;;;;;;8.09;100.00;102201.59;4995659;28;20046;-63
2022/11/30 01:51:46;;;;;;;30.90;16.13;;;;;;;8.08;100.00;102207.69;4995671;28;20029;-64
2022/11/30 01:54:16;;;;;;;28.75;15.25;;;;;;;8.14;100.00;102215.88;4995520;28;20054;-63
2022/11/30 01:56:51;;;;;;;26.00;15.10;;;;;;;8.12;100.00;102218.41;4995524;28;20023;-63
2022/11/30 01:59:18;;;;;;;31.17;15.50;;;;;;;8.08;100.00;102216.47;4995583;28;20523;-64
2022/11/30 02:01:44;;;;;;;27.35;15.07;;;;;;;8.07;100.00;102225.22;4995425;28;20110;-65
2022/11/30 02:04:17;;;;;;;25.27;15.38;;;;;;;8.05;100.00;102226.91;4995595;28;20130;-63
2022/11/30 02:06:44;;;;;;;30.75;15.07;;;;;;;8.06;100.00;102226.06;4995360;28;20030;-64
2022/11/30 02:09:11;;;;;;;27.23;14.73;;;;;;;8.03;100.00;102221.56;4995218;28;20034;-63
2022/11/30 02:11:37;;;;;;;27.52;15.25;;;;;;;8.08;100.00;102219.13;4995289;28;20500;-64
2022/11/30 02:14:11;;;;;;;26.73;15.05;;;;;;;8.08;100.00;102227.00;4995150;28;20059;-64
2022/11/30 02:16:51;;;;;;;33.05;14.75;;;;;;;8.10;100.00;102221.84;4995138;28;20058;-64
2022/11/30 02:19:38;;;;;;;25.45;14.80;;;;;;;8.11;100.00;102224.53;4995189;28;20026;-64
2022/11/30 02:22:25;;;;;;;24.38;14.60;;;;;;;8.14;100.00;102227.28;4994990;28;20022;-64
2022/11/30 02:25:13;;;;;;;25.52;14.25;;;;;;;8.15;100.00;102228.19;4994959;28;20113;-63
2022/11/30 02:27:58;;;;;;;26.02;13.68;;;;;;;8.10;100.00;102227.09;4995164;28;20029;-63
2022/11/30 02:30:23;;;;;;;22.75;13.48;;;;;;;8.09;100.00;102228.81;4994871;28;20022;-63
2022/11/30 02:32:56;;;;;;;20.23;13.73;;;;;;;8.10;100.00;102228.00;4994641;28;20023;-63
2022/11/30 02:35:27;;;;;;;24.50;13.77;;;;;;;8.11;100.00;102229.78;4994854;28;20153;-63
2022/11/30 02:37:55;;;;;;;21.23;13.15;;;;;;;8.12;100.00;102231.59;4993869;28;20497;-63
2022/11/30 02:40:20;;;;;;;21.58;13.57;;;;;;;8.15;100.00;102238.72;4994103;28;20081;-63
2022/11/30 02:42:49;;;;;;;21.30;13.73;;;;;;;8.14;100.00;102229.03;4994555;28;20062;-63
2022/11/30 02:45:15;;;;;;;21.17;13.27;;;;;;;8.11;99.95;102232.41;4994408;28;20056;-63
2022/11/30 02:48:10;;;;;;;20.55;12.45;;;;;;;8.15;100.00;102231.72;4977173;28;20058;-63
2022/11/30 02:50:44;;;;;;;20.77;12.95;;;;;;;8.12;99.94;102228.94;4994448;28;20053;-64
2022/11/30 02:53:10;;;;;;;20.88;12.85;;;;;;;8.17;100.00;102237.03;4994392;28;20066;-63
2022/11/30 02:55:36;;;;;;;22.75;12.98;;;;;;;8.20;100.00;102237.19;4994534;28;20053;-64
2022/11/30 02:58:02;;;;;;;22.73;13.15;;;;;;;8.15;100.00;102226.47;4994149;28;20371;-63
2022/11/30 03:00:27;;;;;;;21.90;13.10;;;;;;;8.20;99.73;102239.81;4994229;28;20029;-63
2022/11/30 03:02:53;;;;;;;20.60;13.00;;;;;;;8.19;99.87;102235.38;4994101;28;20045;-63
2022/11/30 03:05:19;;;;;;;22.23;12.45;;;;;;;8.20;99.79;102245.06;4994271;28;20030;-64
2022/11/30 03:07:44;;;;;;;20.40;12.05;;;;;;;8.18;99.42;102239.75;4994041;28;20026;-64
2022/11/30 03:10:10;;;;;;;19.73;12.15;;;;;;;8.17;99.75;102245.84;4993839;28;20058;-64
2022/11/30 03:12:35;;;;;;;20.35;12.25;;;;;;;8.16;99.73;102243.16;4993754;28;20423;-65
2022/11/30 03:15:00;;;;;;;19.92;12.55;;;;;;;8.17;99.39;102237.94;4994070;28;20392;-64
2022/11/30 03:17:26;;;;;;;19.13;12.45;;;;;;;8.17;100.00;102237.94;4993901;28;20069;-63
2022/11/30 03:19:51;;;;;;;21.48;12.60;;;;;;;8.23;99.47;102238.22;4993938;28;20114;-63
2022/11/30 03:22:17;;;;;;;17.85;12.68;;;;;;;8.24;98.82;102241.75;4993878;28;20022;-64
2022/11/30 03:24:42;;;;;;;18.60;13.07;;;;;;;8.24;98.54;102236.47;4993656;28;20050;-63
2022/11/30 03:27:08;;;;;;;18.98;12.13;;;;;;;8.26;99.00;102233.09;4993810;28;20027;-64
2022/11/30 03:29:33;;;;;;;24.33;13.13;;;;;;;8.31;99.05;102243.81;4976372;28;20019;-63
2022/11/30 03:31:59;;;;;;;18.58;12.10;;;;;;;8.36;99.20;102230.84;4993763;28;20022;-63
2022/11/30 03:34:26;;;;;;;21.77;12.32;;;;;;;8.33;98.45;102236.88;4993672;28;20040;-63
2022/11/30 03:36:52;;;;;;;19.00;11.88;;;;;;;8.33;98.11;102235.97;4993685;28;20049;-63
2022/11/30 03:39:17;;;;;;;20.95;11.65;;;;;;;8.34;98.48;102243.03;4993263;28;20058;-63
2022/11/30 03:41:42;;;;;;;16.90;12.10;;;;;;;8.32;98.01;102242.97;4993625;28;20522;-64
2022/11/30 03:44:08;;;;;;;18.63;12.20;;;;;;;8.28;98.05;102227.88;4993627;28;20161;-63
2022/11/30 03:46:33;;;;;;;17.48;11.63;;;;;;;8.28;98.23;102234.03;4993695;28;20026;-63
2022/11/30 03:48:59;;;;;;;16.75;11.18;;;;;;;8.31;98.00;102241.19;4993347;28;20027;-63
2022/11/30 03:51:24;;;;;;;20.55;12.15;;;;;;;8.31;97.57;102241.19;4993505;28;20058;-63
2022/11/30 03:53:49;;;;;;;19.10;11.68;;;;;;;8.33;97.98;102243.88;4993464;28;20033;-63
2022/11/30 03:56:15;;;;;;;18.25;12.20;;;;;;;8.31;97.79;102243.81;4993411;28;20041;-64
2022/11/30 03:58:41;;;;;;;18.90;11.48;;;;;;;8.30;97.83;102244.63;4993550;28;20032;-63
2022/11/30 04:01:13;;;;;;;16.85;11.55;;;;;;;8.27;97.11;102250.69;4993442;28;20033;-63
2022/11/30 04:03:39;;;;;;;19.00;12.00;;;;;;;8.24;97.26;102244.38;4993444;28;20038;-63
2022/11/30 04:06:06;;;;;;;17.67;11.80;;;;;;;8.25;97.07;102246.16;4993361;28;20030;-63
2022/11/30 04:08:32;;;;;;;20.10;11.57;;;;;;;8.24;97.07;102242.63;4993350;28;20419;-63
2022/11/30 04:10:59;;;;;;;18.58;11.90;;;;;;;8.25;96.96;102254.06;4993198;28;20041;-63
2022/11/30 04:13:25;;;;;;;17.58;11.65;;;;;;;8.27;97.39;102241.88;4993228;28;20038;-63
2022/11/30 04:15:52;;;;;;;19.00;11.80;;;;;;;8.29;97.35;102249.00;4993528;28;20033;-63
2022/11/30 04:18:19;;;;;;;19.05;12.20;;;;;;;8.28;96.94;102247.22;4993271;28;20026;-63
2022/11/30 04:20:45;;;;;;;20.98;11.82;;;;;;;8.31;97.41;102246.44;4993460;28;20044;-63
2022/11/30 04:23:11;;;;;;;21.05;12.25;;;;;;;8.29;97.00;102250.72;4993251;28;20478;-63
2022/11/30 04:25:40;;;;;;;18.33;11.38;;;;;;;8.26;97.03;102245.31;4993313;28;20085;-63
2022/11/30 04:28:06;;;;;;;21.38;12.20;;;;;;;8.21;96.86;102246.88;4993297;28;20030;-63
2022/11/30 04:30:34;;;;;;;21.90;11.60;;;;;;;8.24;97.24;102244.38;4993379;28;20375;-63
2022/11/30 04:32:59;;;;;;;17.23;11.88;;;;;;;8.27;97.18;102250.69;4992966;28;20357;-63
2022/11/30 04:35:25;;;;;;;18.42;11.85;;;;;;;8.28;96.42;102248.94;4993230;28;20096;-64
2022/11/30 04:37:50;;;;;;;18.90;11.80;;;;;;;8.25;96.73;102249.69;4993109;28;20365;-63
2022/11/30 04:40:16;;;;;;;18.95;11.70;;;;;;;8.24;96.29;102241.75;4975028;28;20133;-64
2022/11/30 04:42:42;;;;;;;20.30;12.20;;;;;;;8.19;96.70;102248.56;4992953;28;20037;-63
2022/11/30 04:45:09;;;;;;;17.35;11.50;;;;;;;8.15;96.33;102246.63;4992841;28;20037;-63
2022/11/30 04:47:35;;;;;;;21.35;12.35;;;;;;;8.13;96.96;102243.00;4992928;28;20078;-63
2022/11/30 04:50:00;;;;;;;17.75;11.68;;;;;;;8.14;97.08;102252.72;4993181;28;20025;-64
2022/11/30 04:52:25;;;;;;;15.70;11.02;;;;;;;8.18;97.35;102250.28;4992843;28;20391;-63
2022/11/30 04:54:51;;;;;;;19.45;11.82;;;;;;;8.15;97.00;102246.63;4975463;28;20488;-63
2022/11/30 04:57:17;;;;;;;21.02;11.55;;;;;;;8.16;96.80;102251.94;4992922;28;20166;-64
2022/11/30 04:59:43;;;;;;;17.10;11.45;;;;;;;8.15;96.56;102249.25;4992808;28;20070;-64
2022/11/30 05:02:09;;;;;;;23.63;12.73;;;;;;;8.12;96.37;102254.38;4996534;28;20027;-63
2022/11/30 05:04:34;;;;;;;16.73;11.35;;;;;;;8.09;96.46;102255.13;4996509;28;20034;-64
2022/11/30 05:07:00;;;;;;;19.73;12.52;;;;;;;8.08;96.31;102247.19;4996626;28;20030;-63
2022/11/30 05:09:25;;;;;;;18.42;11.85;;;;;;;8.03;96.76;102250.50;4996137;28;20030;-64
2022/11/30 05:11:51;;;;;;;23.10;11.52;;;;;;;8.05;97.62;102255.88;4996310;28;20471;-64
2022/11/30 05:14:16;;;;;;;18.98;12.30;;;;;;;8.05;96.98;102258.50;4996026;28;20078;-64
2022/11/30 05:16:42;;;;;;;17.95;11.82;;;;;;;8.06;96.87;102262.03;4996176;28;20420;-64
2022/11/30 05:19:07;;;;;;;18.23;12.07;;;;;;;8.04;96.98;102264.56;4996122;28;20034;-64
2022/11/30 05:21:32;;;;;;;21.02;11.85;;;;;;;8.05;97.05;102261.13;4996132;28;20468;-65
2022/11/30 05:23:58;;;;;;;19.58;12.23;;;;;;;8.04;96.16;102260.19;4996022;28;20034;-63
2022/11/30 05:26:23;;;;;;;19.80;11.65;;;;;;;8.07;96.59;102261.19;4996047;28;20033;-63
2022/11/30 05:28:49;;;;;;;19.55;12.15;;;;;;;8.09;97.02;102267.41;4996016;28;20124;-63
2022/11/30 05:31:14;;;;;;;18.27;11.85;;;;;;;8.07;96.05;102269.97;4996210;28;20027;-63
2022/11/30 05:33:39;;;;;;;25.02;12.23;;;;;;;8.07;96.19;102269.97;4995930;28;20128;-63
2022/11/30 05:36:05;;;;;;;19.58;12.25;;;;;;;8.03;96.19;102271.56;4995674;28;20496;-64
2022/11/30 05:38:30;;;;;;;17.42;10.93;;;;;;;8.06;96.22;102269.91;4995577;28;20145;-64
2022/11/30 05:41:00;;;;;;;18.70;11.75;;;;;;;8.01;96.45;102278.50;4995343;28;20102;-63
2022/11/30 05:43:26;;;;;;;21.13;12.43;;;;;;;8.01;96.43;102277.63;4995859;28;20049;-63
2022/11/30 05:45:51;;;;;;;16.17;11.52;;;;;;;8.01;95.90;102282.88;4995651;28;20018;-64
2022/11/30 05:48:16;;;;;;;16.60;11.65;;;;;;;8.01;95.76;102285.53;4995551;28;20023;-64
2022/11/30 05:50:42;;;;;;;18.38;10.88;;;;;;;7.96;96.26;102281.75;4995552;28;20387;-65
2022/11/30 05:53:07;;;;;;;16.02;11.25;;;;;;;7.94;96.79;102278.16;4995415;28;20026;-63
2022/11/30 05:55:32;;;;;;;17.88;12.00;;;;;;;7.97;96.63;102289.75;4995454;28;20037;-63
2022/11/30 05:57:58;;;;;;;16.20;11.68;;;;;;;7.91;95.51;102286.81;4995358;28;20512;-64
2022/11/30 06:00:23;;;;;;;17.25;12.05;;;;;;;7.94;96.96;102288.69;4995395;28;20396;-63
2022/11/30 06:02:54;;;;;;;18.30;11.90;;;;;;;7.94;96.40;102288.69;4995277;28;20069;-64
2022/11/30 06:05:20;;;;;;;19.20;12.38;;;;;;;7.95;96.41;102291.38;4995272;28;20061;-63
2022/11/30 06:07:45;;;;;;;18.73;12.48;;;;;;;7.91;95.74;102289.44;4995215;28;20022;-63
2022/11/30 06:10:11;;;;;;;18.30;12.18;;;;;;;7.90;96.33;102297.28;4995094;28;20058;-64
2022/11/30 06:12:36;;;;;;;18.52;11.90;;;;;;;7.89;96.55;102296.38;4995358;28;20084;-63
2022/11/30 06:15:02;;;;;;;20.38;12.38;;;;;;;7.89;96.56;102295.50;4995357;28;20484;-64
2022/11/30 06:17:27;;;;;;;19.00;12.45;;;;;;;7.88;95.78;102294.59;4995300;28;20081;-63
2022/11/30 06:19:53;;;;;;;16.10;11.45;;;;;;;7.89;95.85;102292.88;4994977;28;20041;-63
2022/11/30 06:22:18;;;;;;;19.02;12.73;;;;;;;7.89;96.48;102296.38;4994956;28;20484;-63
2022/11/30 06:24:43;;;;;;;17.27;11.55;;;;;;;7.91;96.85;102294.72;4994908;28;20302;-64
2022/11/30 06:27:09;;;;;;;19.80;12.48;;;;;;;7.92;96.68;102292.97;4994939;28;20057;-63
2022/11/30 06:29:34;;;;;;;20.25;13.32;;;;;;;7.94;96.60;102294.84;4995202;28;20026;-63
2022/11/30 06:31:59;;;;;;;20.77;12.90;;;;;;;7.95;96.64;102294.00;4995035;28;20495;-63
2022/11/30 06:34:25;;;;;;;21.75;12.90;;;;;;;7.94;96.21;102296.59;4994620;28;20450;-64
2022/11/30 06:36:50;;;;;;;19.83;13.27;;;;;;;7.94;96.52;102301.84;4994744;28;20034;-64
2022/11/30 06:39:15;;;;;;;22.80;13.32;;;;;;;7.94;96.34;102297.50;4994469;28;20030;-65
2022/11/30 06:41:41;;;;;;;20.35;13.55;;;;;;;7.95;96.31;102303.66;4977089;28;20069;-63
2022/11/30 06:44:07;;;;;;;20.63;14.05;;;;;;;7.97;95.86;102305.53;4977017;28;20066;-63
2022/11/30 06:46:33;;;;;;;22.45;13.57;;;;;;;7.99;96.21;102310.84;4994264;28;20395;-63
2022/11/30 06:48:58;;;;;;;21.02;13.23;;;;;;;7.98;96.01;102302.06;4994729;28;20026;-64
2022/11/30 06:51:23;;;;;;;19.38;13.27;;;;;;;7.94;95.95;102304.50;4994022;28;20444;-64
2022/11/30 06:53:49;;;;;;;23.63;13.95;;;;;;;7.99;96.36;102309.13;4994331;28;20113;-64
2022/11/30 06:56:14;;;;;;;21.48;13.98;;;;;;;7.99;96.09;102316.13;4994273;28;20026;-63
2022/11/30 06:58:40;;;;;;;19.27;13.02;;;;;;;7.99;96.22;102310.84;4994450;28;20559;-64
2022/11/30 07:01:07;;;;;;;19.55;13.43;;;;;;;8.02;96.67;102317.16;4976928;28;20555;-63
2022/11/30 07:03:33;;;;;;;20.15;12.93;;;;;;;8.00;95.50;102316.19;4994147;28;20109;-63
2022/11/30 07:05:58;;;;;;;19.38;13.07;;;;;;;7.98;96.02;102315.22;4994198;28;20057;-63
2022/11/30 07:08:24;;;;;;;17.40;12.45;;;;;;;7.98;96.37;102311.69;4994035;28;20033;-64
2022/11/30 07:10:49;;;;;;;18.25;13.00;;;;;;;8.01;95.75;102311.84;4993983;28;20502;-64
2022/11/30 07:13:17;;;;;;;18.13;12.40;;;;;;;7.99;95.89;102308.22;4994004;28;20027;-64
2022/11/30 07:15:44;;;;;;;18.33;12.70;;;;;;;8.00;95.98;102316.19;4994215;28;20109;-63
2022/11/30 07:18:10;;;;;;;21.45;13.40;;;;;;;7.99;95.79;102318.75;4993910;28;20025;-63
2022/11/30 07:20:37;;;;;;;19.17;12.65;;;;;;;8.00;95.35;102336.34;4993878;28;20520;-64
2022/11/30 07:26:08;;;;;;;21.08;12.27;;;;;;;8.04;95.66;102339.16;4994121;28;20045;-64
2022/11/30 07:28:42;;;;;;;17.77;12.70;;;;;;;8.07;95.39;102342.78;4994052;28;20031;-63
2022/11/30 07:31:28;;;;;;;20.90;12.90;;;;;;;8.09;95.44;102343.75;4976361;28;20042;-63
2022/11/30 07:33:55;;;;;;;28.52;13.95;;;;;;;8.05;95.76;102348.00;4993725;28;20029;-64
2022/11/30 07:36:22;;;;;;;24.30;13.60;;;;;;;8.01;95.42;102346.06;4976262;28;20026;-64
2022/11/30 07:38:48;;;;;;;34.28;18.98;;;;;;;7.98;95.21;102351.19;4993730;28;20499;-63
2022/11/30 07:41:13;;;;;;;25.58;15.95;;;;;;;7.99;95.84;102352.97;4993307;28;20129;-63
2022/11/30 07:43:39;;;;;;;26.17;15.82;;;;;;;7.97;95.65;102352.91;4993844;28;20106;-63
2022/11/30 07:46:05;;;;;;;28.58;15.00;;;;;;;7.96;95.86;102365.97;4993790;28;20034;-63
2022/11/30 07:48:30;;;;;;;25.77;14.50;;;;;;;7.94;95.58;102360.66;4993537;28;20058;-64
2022/11/30 07:51:09;;;;;;;18.80;13.25;;;;;;;7.96;95.77;102361.63;4993698;28;20141;-64
2022/11/30 07:53:34;;;;;;;22.73;13.60;;;;;;;7.96;96.15;102365.97;4993348;28;20026;-64
2022/11/30 07:56:26;;;;;;;21.38;13.32;;;;;;;8.05;96.27;102355.91;4993481;28;20076;-63
2022/11/30 07:59:00;;;;;;;20.35;13.90;;;;;;;8.03;96.04;102360.19;4990225;28;20116;-64
2022/11/30 08:01:28;;;;;;;19.48;13.15;;;;;;;8.05;96.54;102363.78;4993701;28;20050;-64
2022/11/30 08:03:54;;;;;;;21.40;13.60;;;;;;;8.06;96.24;102359.44;4993678;28;20045;-63
2022/11/30 08:06:22;;;;;;;21.25;13.77;;;;;;;8.15;96.72;102367.75;4993320;28;20026;-65
2022/11/30 08:08:49;;;;;;;21.85;13.90;;;;;;;8.16;96.06;102367.78;4993682;28;20371;-64
2022/11/30 08:11:27;;;;;;;21.73;14.25;;;;;;;8.20;96.38;102371.47;4993075;28;20436;-63
2022/11/30 08:13:53;;;;;;;22.63;14.82;;;;;;;8.31;96.78;102371.94;4993213;28;20109;-64
2022/11/30 08:16:20;;;;;;;21.13;14.18;;;;;;;8.49;97.17;102378.06;4993427;28;20404;-63
2022/11/30 08:18:48;;;;;;;26.13;15.15;;;;;;;8.55;95.95;102369.53;4993223;28;20026;-63
2022/11/30 08:21:16;;;;;;;24.00;15.15;;;;;;;8.65;96.49;102374.34;4993344;28;20026;-64
2022/11/30 08:23:44;;;;;;;22.02;15.05;;;;;;;8.63;95.56;102370.75;4993456;28;20101;-64
2022/11/30 08:26:13;;;;;;;27.25;15.10;;;;;;;8.73;95.32;102383.47;4993200;28;20026;-63
2022/11/30 08:28:40;;;;;;;25.63;15.98;;;;;;;8.72;95.07;102377.31;4993124;28;20399;-64
2022/11/30 08:31:11;;;;;;;24.90;15.20;;;;;;;8.80;96.28;102382.91;4993071;28;20030;-64
2022/11/30 08:33:37;;;;;;;27.00;15.52;;;;;;;8.86;95.19;102391.06;4993016;28;20104;-64
2022/11/30 08:36:06;;;;;;;20.83;14.80;;;;;;;8.93;94.92;102387.88;4995290;28;20070;-64
2022/11/30 08:38:31;;;;;;;22.52;15.02;;;;;;;8.93;94.28;102390.50;4996748;28;20027;-63
2022/11/30 08:40:57;;;;;;;21.40;14.48;;;;;;;8.91;93.64;102394.84;4996462;28;20053;-64
2022/11/30 08:43:22;;;;;;;24.10;15.20;;;;;;;8.80;93.50;102396.09;4996701;28;20030;-64
2022/11/30 08:45:48;;;;;;;23.90;15.32;;;;;;;8.72;93.45;102400.13;4979403;28;20026;-63
2022/11/30 08:48:13;;;;;;;21.95;15.23;;;;;;;8.67;93.97;102405.22;4979538;28;20030;-63
2022/11/30 08:50:38;;;;;;;23.10;15.75;;;;;;;8.64;94.02;102402.44;4996741;28;20081;-64
2022/11/30 08:53:04;;;;;;;23.35;14.63;;;;;;;8.60;93.91;102404.88;4996573;28;20041;-64
2022/11/30 08:55:29;;;;;;;26.20;15.50;;;;;;;8.58;93.99;102407.44;4996773;28;20026;-63
2022/11/30 08:57:54;;;;;;;24.15;15.27;;;;;;;8.62;93.84;102405.84;4996655;28;20042;-64
2022/11/30 09:00:20;;;;;;;29.15;16.65;;;;;;;8.77;95.86;102401.22;4996736;28;20456;-63
2022/11/30 09:02:46;;;;;;;26.00;16.58;;;;;;;9.22;96.62;102404.00;4996710;28;20034;-63
2022/11/30 09:05:11;;;;;;;26.88;17.15;;;;;;;9.75;94.91;102410.53;4996717;28;20109;-64
2022/11/30 09:07:37;;;;;;;26.52;16.23;;;;;;;10.37;92.99;102409.44;4996659;28;20387;-64
2022/11/30 09:10:02;;;;;;;25.35;16.60;;;;;;;10.93;90.60;102410.53;4996081;28;20472;-64
2022/11/30 09:12:28;;;;;;;27.83;16.70;;;;;;;11.37;89.59;102403.16;4996185;28;20042;-64
2022/11/30 09:14:53;;;;;;;23.98;15.63;;;;;;;11.77;86.40;102412.38;4996283;28;20038;-63
2022/11/30 09:17:18;;;;;;;23.55;16.38;;;;;;;12.16;84.02;102418.03;4996304;28;20480;-63
2022/11/30 09:19:44;;;;;;;24.27;16.00;;;;;;;12.46;82.96;102412.72;4996158;28;20138;-63
2022/11/30 09:22:09;;;;;;;24.50;15.93;;;;;;;12.58;81.24;102419.19;4978571;28;20033;-64
2022/11/30 09:24:36;;;;;;;24.52;16.83;;;;;;;12.54;79.70;102431.47;4978609;28;20491;-64
2022/11/30 09:27:02;;;;;;;25.75;16.90;;;;;;;12.32;78.33;102424.66;4996227;28;20038;-64
2022/11/30 09:29:28;;;;;;;26.48;15.90;;;;;;;11.98;78.90;102426.31;4995918;28;20129;-64
2022/11/30 09:31:53;;;;;;;21.60;15.30;;;;;;;11.59;79.55;102431.22;4995916;28;20038;-65
2022/11/30 09:34:18;;;;;;;25.50;16.27;;;;;;;11.28;81.53;102426.69;4996063;28;20535;-64
2022/11/30 09:36:44;;;;;;;23.25;16.50;;;;;;;11.04;81.95;102430.28;4978497;28;20026;-64
2022/11/30 09:39:11;;;;;;;22.80;15.65;;;;;;;10.72;82.15;102434.47;4995536;28;20392;-64
2022/11/30 09:42:14;;;;;;;24.55;15.52;;;;;;;10.54;84.17;102433.81;4978394;28;20038;-64
2022/11/30 09:44:47;;;;;;;23.48;15.27;;;;;;;10.38;84.88;102429.72;4995703;28;20029;-63
2022/11/30 09:47:21;;;;;;;21.45;15.80;;;;;;;10.32;85.87;102434.78;4995307;28;20480;-63
2022/11/30 09:49:47;;;;;;;23.40;15.60;;;;;;;10.30;86.55;102430.28;4995855;28;20035;-63
2022/11/30 09:52:34;;;;;;;27.80;15.68;;;;;;;10.22;86.50;102429.94;4978198;28;20105;-63
2022/11/30 09:55:05;;;;;;;23.42;15.90;;;;;;;10.22;87.08;102428.19;4995520;28;20057;-64
2022/11/30 09:57:45;;;;;;;24.83;16.70;;;;;;;10.19;87.11;102422.81;4995753;28;20382;-63
2022/11/30 10:00:15;;;;;;;23.58;16.23;;;;;;;10.04;86.98;102433.69;4995720;28;20023;-64
2022/11/30 10:02:42;;;;;;;23.77;16.30;;;;;;;9.98;86.72;102422.91;4995384;28;20498;-63
2022/11/30 10:05:19;;;;;;;23.85;16.83;;;;;;;9.98;87.82;102417.63;4995339;28;20027;-63
2022/11/30 10:08:03;;;;;;;26.65;17.13;;;;;;;9.99;87.60;102426.44;4995600;28;20061;-64
2022/11/30 10:10:34;;;;;;;27.08;16.58;;;;;;;9.89;86.90;102421.63;4995068;28;20057;-64
2022/11/30 10:13:22;;;;;;;28.20;17.10;;;;;;;9.87;87.85;102416.31;4995218;28;20023;-64
2022/11/30 10:16:05;;;;;;;24.98;16.65;;;;;;;9.86;87.67;102417.16;4995166;28;20053;-63
2022/11/30 10:18:40;;;;;;;27.27;17.05;;;;;;;9.87;87.71;102411.03;4977668;28;20026;-64
2022/11/30 10:21:21;;;;;;;24.05;17.00;;;;;;;9.89;88.32;102401.44;4995134;28;20033;-63
2022/11/30 10:23:54;;;;;;;31.05;17.60;;;;;;;9.84;87.74;102410.00;4995274;28;20435;-64
2022/11/30 10:26:34;;;;;;;26.92;16.75;;;;;;;9.83;87.71;102406.47;4995035;28;20050;-63
2022/11/30 10:29:29;;;;;;;27.48;17.20;;;;;;;9.89;88.14;102412.00;4994997;28;20472;-64
2022/11/30 10:31:58;;;;;;;25.23;16.27;;;;;;;9.78;87.19;102410.66;4995183;28;20026;-63
2022/11/30 10:34:31;;;;;;;27.35;17.08;;;;;;;9.79;87.56;102400.16;4994822;28;20030;-64
2022/11/30 10:37:02;;;;;;;24.85;16.15;;;;;;;9.76;87.28;102405.34;4994791;28;20399;-63
2022/11/30 10:39:37;;;;;;;24.52;16.30;;;;;;;9.71;86.33;102400.69;4994453;28;20349;-64
2022/11/30 10:42:25;;;;;;;25.70;15.98;;;;;;;9.70;87.55;102404.19;4977326;28;20056;-63
2022/11/30 10:45:08;;;;;;;24.10;15.50;;;;;;;9.70;87.30;102405.09;4993932;28;20081;-63
2022/11/30 10:47:36;;;;;;;23.17;14.80;;;;;;;9.67;85.54;102407.59;4994875;28;20030;-63
2022/11/30 10:50:03;;;;;;;24.02;15.65;;;;;;;9.66;85.67;102399.63;4994741;28;20109;-64
2022/11/30 10:52:34;;;;;;;23.35;14.90;;;;;;;9.67;85.52;102404.06;4994448;28;20038;-63
2022/11/30 10:55:00;;;;;;;23.77;14.75;;;;;;;9.68;85.14;102400.59;4976954;28;20053;-63
2022/11/30 10:57:30;;;;;;;24.77;14.13;;;;;;;9.70;83.70;102393.63;4994015;28;20427;-65
2022/11/30 10:59:58;;;;;;;24.73;14.90;;;;;;;9.70;84.53;102399.81;4994110;28;20490;-65
2022/11/30 11:02:44;;;;;;;23.95;14.75;;;;;;;9.69;84.15;102394.47;4994553;28;20073;-63
2022/11/30 11:05:15;;;;;;;26.00;14.98;;;;;;;9.66;83.81;102396.97;4994130;28;20030;-63
2022/11/30 11:07:54;;;;;;;24.08;14.98;;;;;;;9.82;84.41;102394.09;4994373;28;20104;-63
2022/11/30 11:10:35;;;;;;;23.25;15.55;;;;;;;9.92;84.93;102396.25;4994013;28;20037;-63
2022/11/30 11:13:01;;;;;;;26.02;15.88;;;;;;;9.96;84.79;102390.25;4994214;28;20469;-64
2022/11/30 11:15:26;;;;;;;23.80;15.95;;;;;;;10.14;85.21;102394.41;4976658;28;20495;-63
2022/11/30 11:18:10;;;;;;;23.40;15.98;;;;;;;10.20;84.46;102400.84;4976737;28;20030;-63
2022/11/30 11:20:38;;;;;;;25.45;16.58;;;;;;;10.28;84.42;102398.53;4994077;28;20096;-63
2022/11/30 11:23:04;;;;;;;27.23;16.15;;;;;;;10.31;83.86;102389.78;4994129;28;20030;-63
2022/11/30 11:25:41;;;;;;;23.38;16.02;;;;;;;10.31;83.90;102395.06;4994078;28;20019;-64
2022/11/30 11:28:14;;;;;;;27.17;17.23;;;;;;;10.26;83.48;102397.56;4994237;28;20034;-63
2022/11/30 11:30:39;;;;;;;;;;;;;;;10.27;83.92;102397.59;4994267;28;20034;-63
2022/11/30 11:33:11;;;;;;;24.83;15.88;;;;;;;10.12;84.33;102398.75;4994026;28;19913;-63
2022/11/30 11:36:09;;;;;;;26.30;15.80;;;;;;;10.11;85.51;102397.88;4993636;28;20484;-63
2022/11/30 11:38:42;;;;;;;27.27;17.30;;;;;;;10.04;85.21;102396.72;4975870;28;20121;-63
2022/11/30 11:41:30;;;;;;;26.42;17.02;;;;;;;10.06;85.78;102396.75;4993363;28;20054;-64
2022/11/30 11:43:59;;;;;;;26.30;17.38;;;;;;;10.01;85.95;102400.97;4993956;28;20425;-63
2022/11/30 11:46:24;;;;;;;26.33;17.02;;;;;;;9.91;84.66;102393.56;4993839;28;20033;-63